createdAt,value
2019-02-28T00:02:56.078Z,11.07
2019-02-28T00:09:00.907Z,13.80
2019-02-28T00:15:08.652Z,11.00
2019-02-28T00:21:13.198Z,13.47
2019-02-28T00:27:20.966Z,12.03
2019-02-28T00:33:24.050Z,8.43
2019-02-28T00:39:31.369Z,12.83
2019-02-28T00:45:37.178Z,19.10
2019-02-28T00:51:41.660Z,11.40
2019-02-28T00:57:46.258Z,11.00
2019-02-28T01:03:50.804Z,14.70
2019-02-28T01:09:55.376Z,12.13
2019-02-28T01:15:59.968Z,13.83
2019-02-28T01:22:04.589Z,12.93
2019-02-28T01:28:09.151Z,11.20
2019-02-28T01:34:13.704Z,12.40
2019-02-28T01:40:18.271Z,11.30
2019-02-28T01:46:22.922Z,13.77
2019-02-28T01:52:27.513Z,12.37
2019-02-28T01:58:32.224Z,10.93
2019-02-28T02:04:36.845Z,14.40
2019-02-28T02:10:41.480Z,12.60
2019-02-28T02:16:46.051Z,15.00
2019-02-28T02:22:50.612Z,10.27
2019-02-28T02:28:55.166Z,11.83
2019-02-28T02:35:06.106Z,13.13
2019-02-28T02:41:06.276Z,14.10
2019-02-28T02:47:10.940Z,14.90
2019-02-28T02:53:15.504Z,12.33
2019-02-28T02:59:20.065Z,12.10
2019-02-28T03:05:24.663Z,20.57
2019-02-28T03:11:29.362Z,23.67
2019-02-28T03:17:33.924Z,15.10
2019-02-28T03:23:40.432Z,18.23
2019-02-28T03:29:44.905Z,17.67
2019-02-28T03:35:49.497Z,13.73
2019-02-28T03:41:54.262Z,16.67
2019-02-28T03:47:59.852Z,18.27
2019-02-28T03:54:04.823Z,23.17
2019-02-28T04:00:32.613Z,22.30
2019-02-28T04:06:32.269Z,23.57
2019-02-28T04:12:44.867Z,23.47
2019-02-28T04:18:45.894Z,22.13
2019-02-28T04:24:49.506Z,24.57
2019-02-28T04:30:54.090Z,24.13
2019-02-28T04:36:58.740Z,31.63
2019-02-28T04:43:03.296Z,20.80
2019-02-28T04:49:07.861Z,25.87
2019-02-28T04:55:12.865Z,31.87
2019-02-28T05:01:17.492Z,29.40
2019-02-28T05:07:22.167Z,25.53
2019-02-28T05:13:26.768Z,31.83
2019-02-28T05:19:32.279Z,30.00
2019-02-28T05:25:37.882Z,30.70
2019-02-28T05:31:42.455Z,31.83
2019-02-28T05:37:48.454Z,30.63
2019-02-28T05:43:53.152Z,30.83
2019-02-28T05:49:59.461Z,29.37
2019-02-28T05:56:04.078Z,36.80
2019-02-28T06:02:08.646Z,32.73
2019-02-28T06:08:13.217Z,31.00
2019-02-28T06:14:17.771Z,22.27
2019-02-28T06:20:22.343Z,38.30
2019-02-28T06:26:26.911Z,40.10
2019-02-28T06:32:31.933Z,39.13
2019-02-28T06:38:36.471Z,34.03
2019-02-28T06:44:41.043Z,45.20
2019-02-28T06:50:45.714Z,40.37
2019-02-28T06:56:50.270Z,34.57
2019-02-28T07:02:54.850Z,47.67
2019-02-28T07:09:02.385Z,38.60
2019-02-28T07:15:07.474Z,40.47
2019-02-28T07:21:12.032Z,53.97
2019-02-28T07:27:16.750Z,47.57
2019-02-28T07:33:21.351Z,49.10
2019-02-28T07:39:26.147Z,49.30
2019-02-28T07:45:33.091Z,53.20
2019-02-28T07:51:37.131Z,51.40
2019-02-28T07:57:41.732Z,73.77
2019-02-28T08:03:46.295Z,59.07
2019-02-28T08:09:50.868Z,50.50
2019-02-28T08:15:56.881Z,47.47
2019-02-28T08:22:02.412Z,46.47
2019-02-28T08:28:06.995Z,52.13
2019-02-28T08:34:11.688Z,49.77
2019-02-28T08:40:22.856Z,57.90
2019-02-28T08:46:27.485Z,56.07
2019-02-28T08:52:32.168Z,58.00
2019-02-28T08:58:37.624Z,52.77
2019-02-28T09:04:44.879Z,58.77
2019-02-28T09:10:49.399Z,58.57
2019-02-28T09:16:54.039Z,54.40
2019-02-28T09:23:02.238Z,54.23
2019-02-28T09:29:05.083Z,53.90
2019-02-28T09:35:13.844Z,59.70
2019-02-28T09:41:16.208Z,68.87
2019-02-28T09:47:23.363Z,63.60
2019-02-28T09:53:27.320Z,65.07
2019-02-28T09:59:37.501Z,70.17
2019-02-28T10:05:39.051Z,67.20
2019-02-28T10:11:44.696Z,63.70
2019-02-28T10:17:49.605Z,65.90
2019-02-28T10:23:57.060Z,71.43
2019-02-28T10:30:00.672Z,64.57
2019-02-28T10:36:05.493Z,66.10
2019-02-28T10:42:10.203Z,74.27
2019-02-28T10:48:14.801Z,79.27
2019-02-28T10:54:19.430Z,68.20
2019-02-28T11:00:33.651Z,68.93
2019-02-28T11:06:41.508Z,67.17
2019-02-28T11:12:46.213Z,69.57
2019-02-28T11:18:50.931Z,68.30
2019-02-28T11:25:00.478Z,72.67
2019-02-28T11:31:02.407Z,72.43
2019-02-28T11:37:08.960Z,95.10
2019-02-28T11:43:14.414Z,61.83
2019-02-28T11:49:19.026Z,64.10
2019-02-28T11:55:24.090Z,61.67
2019-02-28T12:01:28.820Z,64.03
2019-02-28T12:07:34.876Z,72.00
2019-02-28T12:13:39.913Z,67.50
2019-02-28T12:19:47.656Z,58.30
2019-02-28T12:25:51.221Z,55.83
2019-02-28T12:31:55.799Z,60.70
2019-02-28T12:38:01.102Z,57.93
2019-02-28T12:44:05.825Z,62.93
2019-02-28T12:50:14.020Z,59.30
2019-02-28T12:56:18.583Z,61.13
2019-02-28T13:02:23.136Z,62.57
2019-02-28T13:08:29.603Z,59.57
2019-02-28T13:14:36.799Z,55.43
2019-02-28T13:20:41.228Z,61.97
2019-02-28T13:26:45.876Z,61.03
2019-02-28T13:32:50.520Z,59.20
2019-02-28T13:38:55.889Z,64.90
2019-02-28T13:45:01.462Z,63.23
2019-02-28T13:51:08.578Z,63.17
2019-02-28T13:57:13.454Z,56.43
2019-02-28T14:03:18.030Z,49.10
2019-02-28T14:09:23.106Z,60.97
2019-02-28T14:15:38.206Z,63.80
2019-02-28T14:21:42.933Z,57.07
2019-02-28T14:27:48.485Z,57.33
2019-02-28T14:33:54.493Z,60.37
2019-02-28T14:40:00.011Z,61.60
2019-02-28T14:46:05.289Z,61.00
2019-02-28T14:52:09.999Z,68.37
2019-02-28T14:58:14.581Z,90.47
2019-02-28T15:04:19.144Z,89.37
2019-02-28T15:10:26.888Z,94.50
2019-02-28T15:16:32.051Z,88.47
2019-02-28T15:22:36.622Z,104.77
2019-02-28T15:28:41.204Z,113.17
2019-02-28T15:34:45.833Z,100.20
2019-02-28T15:40:50.641Z,95.83
2019-02-28T15:46:55.769Z,98.73
2019-02-28T15:53:01.207Z,103.43
2019-02-28T15:59:05.908Z,98.77
2019-02-28T16:05:10.967Z,99.30
2019-02-28T16:11:15.686Z,102.33
2019-02-28T16:17:20.328Z,92.80
2019-02-28T16:23:27.531Z,94.30
2019-02-28T16:29:31.536Z,95.47
2019-02-28T16:35:36.262Z,104.77
2019-02-28T16:41:40.894Z,108.00
2019-02-28T16:47:45.496Z,102.30
2019-02-28T16:53:50.081Z,105.87
2019-02-28T16:59:54.682Z,97.43
2019-02-28T17:06:01.619Z,95.97
2019-02-28T17:12:07.581Z,112.10
2019-02-28T17:18:13.892Z,113.30
2019-02-28T17:24:18.470Z,103.00
2019-02-28T17:30:24.824Z,104.50
2019-02-28T17:36:29.895Z,99.03
2019-02-28T17:42:34.609Z,113.37
2019-02-28T17:49:15.625Z,109.27
2019-02-28T17:55:45.613Z,99.47
2019-02-28T18:02:32.764Z,112.20
2019-02-28T18:09:00.042Z,111.63
2019-02-28T18:15:30.142Z,107.90
2019-02-28T18:21:57.479Z,99.10
2019-02-28T18:28:27.759Z,119.00
2019-02-28T18:34:32.849Z,126.97
2019-02-28T18:40:37.511Z,122.70
2019-02-28T18:46:42.092Z,110.67
2019-02-28T18:52:46.666Z,104.97
2019-02-28T18:58:51.249Z,107.40
2019-02-28T19:04:55.980Z,106.83
2019-02-28T19:11:00.722Z,90.13
2019-02-28T19:17:05.428Z,77.10
2019-02-28T19:23:10.075Z,105.37
2019-02-28T19:29:16.170Z,113.67
2019-02-28T19:35:20.879Z,72.83
2019-02-28T19:41:25.530Z,78.37
2019-02-28T19:47:30.523Z,77.23
2019-02-28T19:53:35.182Z,64.47
2019-02-28T19:59:39.739Z,68.47
2019-02-28T20:05:44.482Z,55.33
2019-02-28T20:11:49.121Z,60.40
2019-02-28T20:17:54.037Z,69.13
2019-02-28T20:23:59.003Z,71.97
2019-02-28T20:30:05.621Z,62.23
2019-02-28T20:36:10.297Z,70.50
2019-02-28T20:42:14.913Z,77.83
2019-02-28T20:48:19.771Z,79.70
2019-02-28T20:54:24.331Z,74.77
2019-02-28T21:00:29.224Z,72.03
2019-02-28T21:06:35.400Z,86.57
2019-02-28T21:12:40.131Z,76.93
2019-02-28T21:18:44.866Z,74.07
2019-02-28T21:24:49.533Z,91.90
2019-02-28T21:30:54.126Z,83.10
2019-02-28T21:36:58.906Z,72.43
2019-02-28T21:43:03.753Z,70.73
2019-02-28T21:49:08.388Z,77.63
2019-02-28T21:55:17.917Z,66.33
2019-02-28T22:01:22.501Z,74.27
2019-02-28T22:07:27.886Z,67.67
2019-02-28T22:13:32.456Z,77.47
2019-02-28T22:19:37.405Z,67.13
2019-02-28T22:25:42.015Z,64.17
2019-02-28T22:31:57.143Z,54.77
2019-02-28T22:38:01.842Z,58.03
2019-02-28T22:44:06.574Z,55.47
2019-02-28T22:50:11.381Z,53.53
2019-02-28T22:56:15.970Z,55.47
2019-02-28T23:02:21.174Z,53.63
2019-02-28T23:08:25.805Z,53.03
2019-02-28T23:14:30.472Z,54.50
2019-02-28T23:20:35.069Z,47.23
2019-02-28T23:27:12.229Z,37.57
2019-02-28T23:33:17.146Z,41.10
2019-02-28T23:39:21.738Z,38.13
2019-02-28T23:45:26.385Z,39.00
2019-02-28T23:51:31.108Z,38.03
2019-02-28T23:57:35.755Z,42.13
